createdAt,value
2024-02-03T09:01:28.137Z,22.75
2024-02-03T09:02:01.137Z,22.91
2024-02-03T09:03:01.142Z,23.01
2024-02-03T09:04:01.218Z,23.05
2024-02-03T09:05:01.137Z,23.08
2024-02-03T09:06:01.249Z,23.11
2024-02-03T09:07:01.141Z,23.14
2024-02-03T09:08:01.368Z,23.15
2024-02-03T09:09:01.096Z,23.18
2024-02-03T09:10:01.580Z,23.18
2024-02-03T09:11:01.139Z,23.19
2024-02-03T09:12:01.223Z,23.20
2024-02-03T09:13:01.102Z,23.21
2024-02-03T09:14:01.101Z,23.21
2024-02-03T09:15:01.106Z,23.23
2024-02-03T09:16:01.178Z,23.24
2024-02-03T09:17:02.828Z,23.25
2024-02-03T09:18:01.401Z,23.25
2024-02-03T09:19:01.307Z,23.26
2024-02-03T09:20:01.260Z,23.26
2024-02-03T09:21:01.099Z,23.26
2024-02-03T09:22:01.258Z,23.28
2024-02-03T09:23:01.167Z,23.28
2024-02-03T09:24:01.117Z,23.28
2024-02-03T09:25:01.125Z,23.29
2024-02-03T09:26:01.138Z,23.29
2024-02-03T09:27:01.175Z,23.29
2024-02-03T09:28:01.128Z,23.30
2024-02-03T09:29:01.163Z,23.30
2024-02-03T09:30:01.138Z,23.31
2024-02-03T09:31:01.211Z,23.31
2024-02-03T09:32:01.126Z,23.31
2024-02-03T09:33:08.578Z,23.29
2024-02-03T09:34:08.615Z,23.31
2024-02-03T09:35:08.551Z,23.32
2024-02-03T09:36:08.459Z,23.32
2024-02-03T09:38:08.534Z,23.32
2024-02-03T09:39:08.499Z,23.33
2024-02-03T09:40:08.479Z,23.34
2024-02-03T09:41:08.499Z,23.34
2024-02-03T09:42:08.515Z,23.34
2024-02-03T09:43:08.488Z,23.34
2024-02-03T09:44:08.540Z,23.35
2024-02-03T09:45:08.531Z,23.35
2024-02-03T09:46:08.478Z,23.35
2024-02-03T09:47:08.520Z,23.36
2024-02-03T09:48:08.538Z,23.36
2024-02-03T09:49:08.570Z,23.36
2024-02-03T09:50:08.555Z,23.37
2024-02-03T09:51:09.811Z,23.37
2024-02-03T09:52:08.519Z,23.37
2024-02-03T09:53:08.536Z,23.38
2024-02-03T09:54:08.523Z,23.37
2024-02-03T09:55:08.515Z,23.38
2024-02-03T09:56:08.523Z,23.39
2024-02-03T09:57:08.517Z,23.39
2024-02-03T09:58:08.548Z,23.39
2024-02-03T09:59:08.533Z,23.39
2024-02-03T10:00:08.514Z,23.40
2024-02-03T10:01:08.641Z,23.40
2024-02-03T10:02:08.513Z,23.41
2024-02-03T10:03:08.552Z,23.41
2024-02-03T10:04:08.611Z,23.41
2024-02-03T10:05:08.592Z,23.41
2024-02-03T10:06:08.570Z,23.42
2024-02-03T10:07:08.714Z,23.42
2024-02-03T10:08:08.568Z,23.42
2024-02-03T10:09:08.605Z,23.42
2024-02-03T10:11:08.673Z,23.42
2024-02-03T10:12:08.535Z,23.43
2024-02-03T10:13:08.565Z,23.43
2024-02-03T10:14:08.569Z,23.44
2024-02-03T10:15:08.665Z,23.43
2024-02-03T10:16:08.621Z,23.44
2024-02-03T10:17:08.542Z,23.44
2024-02-03T10:18:09.136Z,23.45
2024-02-03T10:19:08.597Z,23.45
2024-02-03T10:20:09.050Z,23.46
2024-02-03T10:21:08.599Z,23.46
2024-02-03T10:22:08.586Z,23.46
2024-02-03T10:23:08.679Z,23.46
2024-02-03T10:24:08.561Z,23.47
2024-02-03T10:25:08.573Z,23.48
2024-02-03T10:26:08.612Z,23.47
2024-02-03T10:27:08.578Z,23.48
2024-02-03T10:28:08.587Z,23.48
2024-02-03T10:29:08.592Z,23.48
2024-02-03T10:30:08.582Z,23.49
2024-02-03T10:31:08.666Z,23.49
2024-02-03T10:32:08.575Z,23.49
2024-02-03T10:33:08.624Z,23.50
2024-02-03T10:34:08.690Z,23.50
2024-02-03T10:35:08.652Z,23.50
2024-02-03T10:36:08.561Z,23.51
2024-02-03T10:37:08.690Z,23.52
2024-02-03T10:38:08.634Z,23.52
2024-02-03T10:39:08.606Z,23.52
2024-02-03T10:40:08.634Z,23.53
2024-02-03T10:41:08.595Z,23.54
2024-02-03T10:42:08.629Z,23.55
2024-02-03T10:43:08.625Z,23.55
2024-02-03T10:44:08.591Z,23.56
2024-02-03T10:45:08.638Z,23.57
2024-02-03T10:46:08.763Z,23.59
2024-02-03T10:47:08.612Z,23.59
2024-02-03T10:48:08.668Z,23.60
2024-02-03T10:49:08.686Z,23.62
2024-02-03T10:50:08.693Z,23.63
2024-02-03T10:51:08.615Z,23.64
2024-02-03T10:52:08.665Z,23.66
2024-02-03T10:53:08.659Z,23.67
2024-02-03T10:54:08.624Z,23.69
2024-02-03T10:55:08.635Z,23.70
2024-02-03T10:56:08.638Z,23.71
2024-02-03T10:57:08.622Z,23.72
2024-02-03T10:58:08.608Z,23.73
2024-02-03T10:59:08.631Z,23.74
2024-02-03T11:00:08.640Z,23.76
2024-02-03T11:01:08.755Z,23.77
2024-02-03T11:02:08.619Z,23.78
2024-02-03T11:03:08.656Z,23.80
2024-02-03T11:04:08.705Z,23.80
2024-02-03T11:05:08.654Z,23.82
2024-02-03T11:06:08.690Z,23.83
2024-02-03T11:07:08.665Z,23.84
2024-02-03T11:08:08.645Z,23.85
2024-02-03T11:09:08.644Z,23.87
2024-02-03T11:10:08.650Z,23.87
2024-02-03T11:11:08.621Z,23.88
2024-02-03T11:12:08.673Z,23.90
2024-02-03T11:13:08.678Z,23.91
2024-02-03T11:14:08.652Z,23.93
2024-02-03T11:15:08.688Z,23.94
2024-02-03T11:16:08.906Z,23.96
2024-02-03T11:17:08.660Z,23.97
2024-02-03T11:18:08.702Z,23.98
2024-02-03T11:19:08.794Z,24.00
2024-02-03T11:20:08.777Z,24.01
2024-02-03T11:21:08.704Z,24.03
2024-02-03T11:22:08.669Z,24.05
2024-02-03T11:23:08.667Z,24.07
2024-02-03T11:24:08.692Z,24.08
2024-02-03T11:25:08.689Z,24.09
2024-02-03T11:26:08.837Z,24.12
2024-02-03T11:27:08.819Z,24.13
2024-02-03T11:28:08.904Z,24.15
2024-02-03T11:29:08.946Z,24.16
2024-02-03T11:30:09.029Z,24.18
2024-02-03T11:31:09.092Z,24.20
2024-02-03T11:32:09.156Z,24.22
2024-02-03T11:33:09.251Z,24.24
2024-02-03T11:34:09.360Z,24.26
2024-02-03T11:35:09.328Z,24.28
2024-02-03T11:36:09.385Z,24.29
2024-02-03T11:37:09.395Z,24.30
2024-02-03T11:38:09.470Z,24.31
2024-02-03T11:39:09.489Z,24.32
2024-02-03T11:40:09.562Z,24.34
2024-02-03T11:41:09.616Z,24.35
2024-02-03T11:42:09.624Z,24.36
2024-02-03T11:43:09.641Z,24.38
2024-02-03T11:44:09.729Z,24.40
2024-02-03T11:45:09.757Z,24.40
2024-02-03T11:46:09.827Z,24.42
2024-02-03T11:47:09.972Z,24.43
2024-02-03T11:48:09.943Z,24.43
2024-02-03T11:49:09.985Z,24.45
2024-02-03T11:50:09.981Z,24.46
2024-02-03T11:51:10.029Z,24.47
2024-02-03T11:52:10.020Z,24.48
2024-02-03T11:53:10.067Z,24.49
2024-02-03T11:54:10.097Z,24.50
2024-02-03T11:55:10.197Z,24.51
2024-02-03T11:56:10.192Z,24.52
2024-02-03T11:57:10.223Z,24.54
2024-02-03T11:58:10.266Z,24.55
2024-02-03T11:59:11.572Z,24.55
2024-02-03T12:00:10.355Z,24.56
2024-02-03T12:01:10.478Z,24.58
2024-02-03T12:02:10.427Z,24.59
2024-02-03T12:03:10.523Z,24.60
2024-02-03T12:04:10.574Z,24.61
2024-02-03T12:05:14.143Z,24.61
2024-02-03T12:06:10.508Z,24.63
2024-02-03T12:07:10.575Z,24.64
2024-02-03T12:08:10.544Z,24.65
2024-02-03T12:09:10.505Z,24.66
2024-02-03T12:10:10.572Z,24.67
2024-02-03T12:11:12.742Z,24.68
2024-02-03T12:12:10.540Z,24.68
2024-02-03T12:13:10.624Z,24.70
2024-02-03T12:14:10.558Z,24.71
2024-02-03T12:15:10.528Z,24.72
2024-02-03T12:16:10.561Z,24.73
2024-02-03T12:17:12.465Z,24.75
2024-02-03T12:18:10.622Z,24.76
2024-02-03T12:19:10.590Z,24.77
2024-02-03T12:20:10.510Z,24.78
2024-02-03T12:21:10.543Z,24.80
2024-02-03T12:22:10.548Z,24.80
2024-02-03T12:23:16.555Z,24.81
2024-02-03T12:24:11.513Z,24.83
2024-02-03T12:25:10.501Z,24.84
2024-02-03T12:26:10.553Z,24.86
2024-02-03T12:27:10.502Z,24.86
2024-02-03T12:28:10.577Z,24.88
2024-02-03T12:29:10.530Z,24.88
2024-02-03T12:30:10.530Z,24.89
2024-02-03T12:31:10.556Z,24.90
2024-02-03T12:32:10.543Z,24.90
2024-02-03T12:33:10.737Z,24.91
2024-02-03T12:34:10.593Z,24.91
2024-02-03T12:35:10.650Z,24.91
2024-02-03T12:36:10.536Z,24.92
2024-02-03T12:37:10.667Z,24.93
2024-02-03T12:38:10.535Z,24.94
2024-02-03T12:39:10.685Z,24.93
2024-02-03T12:40:10.631Z,24.94
2024-02-03T12:41:10.656Z,24.93
2024-02-03T12:42:10.713Z,24.93
2024-02-03T12:43:10.745Z,24.92
2024-02-03T12:44:10.691Z,24.92
2024-02-03T12:45:10.744Z,24.92
2024-02-03T12:46:10.820Z,24.91
2024-02-03T12:47:10.875Z,24.90
2024-02-03T12:48:10.963Z,24.89
2024-02-03T12:49:11.137Z,24.88
2024-02-03T12:50:11.319Z,24.87
2024-02-03T12:51:11.064Z,24.86
2024-02-03T12:52:11.004Z,24.86
2024-02-03T12:53:11.074Z,24.86
2024-02-03T12:54:11.128Z,24.85
2024-02-03T12:55:11.185Z,24.85
2024-02-03T12:56:11.243Z,24.85
2024-02-03T12:57:11.219Z,24.84
2024-02-03T12:58:11.281Z,24.83
2024-02-03T12:59:11.308Z,24.83
2024-02-03T13:00:11.381Z,24.82
2024-02-03T13:01:11.541Z,24.81
2024-02-03T13:02:11.427Z,24.81
2024-02-03T13:03:11.478Z,24.81
2024-02-03T13:04:11.583Z,24.80
2024-02-03T13:05:12.892Z,24.80
2024-02-03T13:06:11.637Z,24.79
2024-02-03T13:07:11.520Z,24.78
2024-02-03T13:08:11.611Z,24.78
2024-02-03T13:09:11.449Z,24.77
2024-02-03T13:10:11.493Z,24.76
2024-02-03T13:11:13.250Z,24.74
2024-02-03T13:12:11.474Z,24.73
2024-02-03T13:13:11.466Z,24.72
2024-02-03T13:14:11.487Z,24.73
2024-02-03T13:15:11.438Z,24.72
2024-02-03T13:16:11.522Z,24.71
2024-02-03T13:17:12.561Z,24.71
2024-02-03T13:18:11.470Z,24.69
2024-02-03T13:19:11.576Z,24.69
2024-02-03T13:20:11.593Z,24.69
2024-02-03T13:21:11.509Z,24.68
2024-02-03T13:22:11.490Z,24.67
2024-02-03T13:23:11.499Z,24.66
2024-02-03T13:24:11.548Z,24.66
2024-02-03T13:25:11.468Z,24.66
2024-02-03T13:26:11.623Z,24.65
2024-02-03T13:27:11.519Z,24.64
2024-02-03T13:28:11.562Z,24.64
2024-02-03T13:29:11.866Z,24.63
2024-02-03T13:30:11.495Z,24.63
2024-02-03T13:31:11.508Z,24.62
2024-02-03T13:32:11.418Z,24.63
2024-02-03T13:33:11.647Z,24.62
2024-02-03T13:34:15.355Z,24.61
2024-02-03T13:35:12.563Z,24.60
2024-02-03T13:36:11.582Z,24.61
2024-02-03T13:37:11.476Z,24.60
2024-02-03T13:38:11.515Z,24.60
2024-02-03T13:39:11.476Z,24.59
2024-02-03T13:40:11.605Z,24.59
2024-02-03T13:41:11.487Z,24.58
2024-02-03T13:42:11.498Z,24.58
2024-02-03T13:43:11.487Z,24.57
2024-02-03T13:44:11.518Z,24.57
2024-02-03T13:45:11.495Z,24.57
2024-02-03T13:46:11.616Z,24.57
2024-02-03T13:47:11.504Z,24.56
2024-02-03T13:48:11.640Z,24.55
2024-02-03T13:49:11.656Z,24.55
2024-02-03T13:50:11.514Z,24.55
2024-02-03T13:51:11.498Z,24.54
2024-02-03T13:52:11.586Z,24.54
2024-02-03T13:53:11.517Z,24.54
2024-02-03T13:54:11.531Z,24.53
2024-02-03T13:55:11.586Z,24.53
2024-02-03T13:56:11.655Z,24.52
2024-02-03T13:57:11.676Z,24.53
2024-02-03T13:58:11.716Z,24.53
2024-02-03T13:59:11.800Z,24.53
2024-02-03T14:00:11.800Z,24.52
